createdAt,value
2023-03-30T00:01:15.284Z,6.91
2023-03-30T00:03:44.979Z,6.81
2023-03-30T00:06:21.123Z,6.75
2023-03-30T00:08:50.248Z,6.70
2023-03-30T00:11:17.774Z,6.74
2023-03-30T00:13:45.334Z,6.95
2023-03-30T00:16:14.631Z,6.81
2023-03-30T00:18:42.035Z,6.76
2023-03-30T00:21:11.255Z,6.67
2023-03-30T00:23:39.618Z,6.60
2023-03-30T00:26:08.850Z,6.64
2023-03-30T00:28:36.470Z,6.50
2023-03-30T00:31:04.533Z,6.42
2023-03-30T00:33:44.905Z,6.54
2023-03-30T00:36:14.053Z,6.48
2023-03-30T00:38:41.483Z,6.46
2023-03-30T00:41:09.508Z,6.38
2023-03-30T00:44:42.814Z,6.38
2023-03-30T00:47:10.586Z,6.45
2023-03-30T00:49:37.888Z,6.44
2023-03-30T00:52:06.020Z,6.30
2023-03-30T00:54:33.414Z,6.23
2023-03-30T00:57:01.218Z,6.39
2023-03-30T00:59:28.650Z,6.54
2023-03-30T01:01:56.685Z,6.52
2023-03-30T01:04:25.949Z,6.47
2023-03-30T01:06:55.285Z,6.46
2023-03-30T01:09:22.811Z,6.57
2023-03-30T01:11:50.768Z,6.62
2023-03-30T01:14:18.841Z,6.62
2023-03-30T01:17:21.552Z,6.65
2023-03-30T01:20:13.206Z,6.61
2023-03-30T01:23:27.569Z,6.78
2023-03-30T01:26:39.912Z,6.67
2023-03-30T01:29:37.018Z,6.62
2023-03-30T01:32:24.975Z,6.63
2023-03-30T01:35:32.270Z,6.56
2023-03-30T01:38:16.433Z,6.60
2023-03-30T01:40:58.687Z,6.64
2023-03-30T01:43:52.814Z,6.63
2023-03-30T01:46:46.171Z,6.72
2023-03-30T01:49:31.899Z,6.66
2023-03-30T01:52:25.856Z,6.58
2023-03-30T01:55:19.746Z,6.41
2023-03-30T01:57:55.614Z,6.49
2023-03-30T02:00:25.473Z,6.48
2023-03-30T02:03:00.142Z,6.38
2023-03-30T02:05:30.853Z,6.41
2023-03-30T02:08:07.618Z,6.36
2023-03-30T02:10:38.471Z,6.45
2023-03-30T02:13:08.349Z,6.41
2023-03-30T02:15:42.126Z,6.36
2023-03-30T02:18:11.114Z,6.42
2023-03-30T02:20:39.126Z,6.44
2023-03-30T02:23:07.783Z,6.35
2023-03-30T02:25:38.656Z,6.44
2023-03-30T02:28:09.139Z,6.55
2023-03-30T02:30:44.136Z,6.50
2023-03-30T02:33:42.188Z,6.48
2023-03-30T02:36:40.040Z,6.51
2023-03-30T02:39:30.292Z,6.45
2023-03-30T02:42:34.147Z,6.43
2023-03-30T02:45:29.553Z,6.46
2023-03-30T02:48:19.909Z,6.51
2023-03-30T02:51:11.669Z,6.58
2023-03-30T02:54:10.175Z,6.41
2023-03-30T02:56:57.073Z,6.64
2023-03-30T02:59:37.837Z,6.73
2023-03-30T03:02:37.499Z,6.78
2023-03-30T03:05:07.508Z,6.72
2023-03-30T03:07:35.409Z,6.71
2023-03-30T03:10:02.644Z,6.57
2023-03-30T03:12:30.212Z,6.64
2023-03-30T03:14:57.896Z,6.67
2023-03-30T03:17:29.659Z,6.78
2023-03-30T03:19:56.923Z,6.80
2023-03-30T03:22:24.606Z,6.82
2023-03-30T03:24:51.863Z,6.82
2023-03-30T03:27:19.443Z,6.81
2023-03-30T03:29:47.643Z,6.97
2023-03-30T03:32:16.108Z,7.02
2023-03-30T03:34:45.912Z,7.06
2023-03-30T03:37:13.716Z,6.98
2023-03-30T03:39:40.967Z,7.00
2023-03-30T03:42:08.797Z,6.94
2023-03-30T03:44:37.761Z,6.82
2023-03-30T03:47:05.446Z,6.83
2023-03-30T03:49:32.680Z,6.87
2023-03-30T03:52:00.412Z,6.77
2023-03-30T03:54:27.674Z,6.67
2023-03-30T03:56:55.267Z,6.69
2023-03-30T03:59:22.710Z,6.66
2023-03-30T04:01:50.490Z,6.76
2023-03-30T04:04:17.958Z,6.80
2023-03-30T04:06:46.199Z,6.79
2023-03-30T04:09:13.633Z,6.75
2023-03-30T04:11:41.644Z,6.71
2023-03-30T04:14:08.865Z,6.80
2023-03-30T04:16:37.373Z,6.76
2023-03-30T04:19:04.712Z,6.71
2023-03-30T04:21:32.269Z,6.79
2023-03-30T04:23:59.546Z,6.85
2023-03-30T04:26:28.645Z,6.96
2023-03-30T04:28:55.906Z,7.10
2023-03-30T04:31:24.049Z,7.07
2023-03-30T04:33:53.431Z,6.92
2023-03-30T04:36:21.522Z,6.92
2023-03-30T04:38:58.738Z,6.87
2023-03-30T04:41:36.070Z,6.86
2023-03-30T04:44:07.017Z,6.89
2023-03-30T04:46:35.388Z,6.92
2023-03-30T04:49:04.054Z,7.01
2023-03-30T04:51:32.375Z,7.04
2023-03-30T04:53:59.670Z,7.15
2023-03-30T04:56:27.961Z,7.19
2023-03-30T04:58:56.122Z,7.13
2023-03-30T05:01:24.539Z,7.06
2023-03-30T05:03:52.177Z,7.06
2023-03-30T05:06:19.842Z,7.08
2023-03-30T05:08:47.171Z,7.17
2023-03-30T05:11:14.718Z,7.21
2023-03-30T05:13:42.081Z,7.31
2023-03-30T05:16:09.984Z,7.37
2023-03-30T05:18:38.908Z,7.52
2023-03-30T05:21:06.936Z,7.52
2023-03-30T05:23:34.364Z,7.58
2023-03-30T05:26:04.596Z,7.56
2023-03-30T05:28:32.553Z,7.46
2023-03-30T05:31:00.494Z,7.62
2023-03-30T05:33:27.876Z,7.69
2023-03-30T05:35:55.738Z,7.62
2023-03-30T05:38:23.443Z,7.68
2023-03-30T05:40:54.618Z,7.76
2023-03-30T05:43:22.021Z,7.77
2023-03-30T05:45:50.587Z,7.93
2023-03-30T05:48:17.898Z,7.87
2023-03-30T05:50:48.247Z,8.14
2023-03-30T05:53:16.814Z,8.51
2023-03-30T05:55:49.661Z,8.57
2023-03-30T05:58:18.183Z,8.57
2023-03-30T06:00:48.294Z,8.82
2023-03-30T06:03:15.814Z,8.36
2023-03-30T06:05:44.189Z,8.50
2023-03-30T06:08:13.658Z,8.46
2023-03-30T06:10:42.213Z,8.49
2023-03-30T06:13:09.434Z,8.62
2023-03-30T06:15:37.046Z,8.61
2023-03-30T06:18:04.703Z,8.67
2023-03-30T06:20:32.337Z,8.77
2023-03-30T06:22:59.604Z,8.86
2023-03-30T06:25:27.363Z,9.10
2023-03-30T06:27:54.628Z,9.09
2023-03-30T06:30:22.681Z,9.33
2023-03-30T06:32:50.070Z,9.30
2023-03-30T06:35:17.790Z,9.28
2023-03-30T06:37:45.070Z,9.20
2023-03-30T06:40:13.900Z,9.54
2023-03-30T06:42:44.874Z,9.73
2023-03-30T06:45:13.686Z,9.72
2023-03-30T06:47:41.751Z,10.03
2023-03-30T06:50:10.201Z,10.10
2023-03-30T06:52:38.460Z,10.27
2023-03-30T06:55:06.666Z,10.65
2023-03-30T06:57:34.044Z,10.59
2023-03-30T07:00:01.946Z,10.66
2023-03-30T07:02:30.261Z,10.78
2023-03-30T07:04:57.815Z,11.08
2023-03-30T07:07:25.128Z,11.16
2023-03-30T07:09:52.957Z,11.31
2023-03-30T07:12:20.279Z,11.57
2023-03-30T07:14:48.055Z,12.07
2023-03-30T07:17:16.678Z,11.87
2023-03-30T07:19:44.248Z,13.28
2023-03-30T07:22:11.515Z,14.39
2023-03-30T07:24:39.074Z,16.20
2023-03-30T07:27:06.378Z,17.42
2023-03-30T07:29:33.944Z,17.39
2023-03-30T07:32:01.216Z,17.25
2023-03-30T07:34:29.633Z,17.83
2023-03-30T07:36:56.882Z,16.97
2023-03-30T07:39:24.999Z,16.00
2023-03-30T07:41:52.357Z,15.30
2023-03-30T07:44:20.020Z,15.72
2023-03-30T07:46:47.421Z,17.75
2023-03-30T07:49:15.353Z,19.96
2023-03-30T07:51:42.584Z,24.68
2023-03-30T07:54:10.695Z,26.52
2023-03-30T07:56:39.661Z,26.89
2023-03-30T07:59:08.272Z,28.69
2023-03-30T08:01:36.026Z,29.44
2023-03-30T08:04:03.621Z,30.53
2023-03-30T08:06:31.019Z,29.74
2023-03-30T08:08:58.582Z,28.26
2023-03-30T08:11:25.850Z,28.97
2023-03-30T08:13:53.512Z,27.27
2023-03-30T08:16:21.125Z,23.91
2023-03-30T08:18:48.837Z,23.94
2023-03-30T08:21:16.167Z,26.82
2023-03-30T08:23:43.989Z,28.25
2023-03-30T08:26:11.476Z,28.92
2023-03-30T08:28:39.342Z,28.65
2023-03-30T08:31:11.039Z,26.08
2023-03-30T08:33:39.633Z,22.79
2023-03-30T08:36:07.127Z,21.88
2023-03-30T08:38:34.753Z,23.35
2023-03-30T08:41:02.471Z,24.19
2023-03-30T08:43:52.996Z,24.17
2023-03-30T08:46:21.181Z,23.36
2023-03-30T08:48:52.066Z,22.28
2023-03-30T08:51:29.632Z,20.87
2023-03-30T08:54:07.918Z,20.11
2023-03-30T08:56:44.239Z,20.22
2023-03-30T08:59:37.743Z,19.38
2023-03-30T09:02:17.240Z,18.67
2023-03-30T09:05:01.928Z,19.11
2023-03-30T09:07:39.303Z,25.09
2023-03-30T09:10:14.043Z,30.37
2023-03-30T09:12:43.660Z,32.79
2023-03-30T09:15:36.216Z,34.84
2023-03-30T09:18:17.173Z,32.86
2023-03-30T09:20:47.881Z,32.32
2023-03-30T09:23:18.248Z,32.88
2023-03-30T09:26:13.360Z,35.08
2023-03-30T09:29:08.571Z,39.61
2023-03-30T09:31:44.457Z,42.50
2023-03-30T09:34:30.440Z,43.67
2023-03-30T09:37:06.040Z,37.89
2023-03-30T09:39:36.952Z,35.41
2023-03-30T09:42:12.019Z,42.74
2023-03-30T09:44:56.965Z,43.89
2023-03-30T09:47:39.115Z,43.30
2023-03-30T09:50:12.463Z,45.63
2023-03-30T09:52:41.800Z,42.77
2023-03-30T09:55:21.661Z,36.06
2023-03-30T09:57:51.251Z,30.57
2023-03-30T10:00:34.274Z,28.48
2023-03-30T10:03:06.712Z,27.66
2023-03-30T10:05:39.011Z,27.29
2023-03-30T10:08:25.054Z,25.38
2023-03-30T10:10:58.270Z,23.55
2023-03-30T10:13:39.206Z,22.74
2023-03-30T10:16:22.554Z,22.73
2023-03-30T10:19:01.906Z,22.67
2023-03-30T10:21:40.246Z,22.04
2023-03-30T10:24:25.370Z,22.91
2023-03-30T10:27:03.414Z,30.13
2023-03-30T10:29:31.336Z,29.75
2023-03-30T10:32:28.280Z,32.93
2023-03-30T10:35:02.091Z,32.51
2023-03-30T10:37:42.803Z,33.05
2023-03-30T10:40:23.811Z,35.54
2023-03-30T10:42:58.054Z,40.78
2023-03-30T10:45:49.304Z,41.50
2023-03-30T10:48:46.908Z,40.61
2023-03-30T10:51:52.682Z,41.72
2023-03-30T10:54:55.638Z,43.32
2023-03-30T10:57:41.243Z,43.96
2023-03-30T11:00:38.557Z,39.51
2023-03-30T11:03:17.905Z,35.10
2023-03-30T11:05:51.740Z,36.50
2023-03-30T11:08:30.500Z,40.71
2023-03-30T11:11:00.609Z,42.55
2023-03-30T11:13:37.163Z,45.07
2023-03-30T11:16:26.045Z,44.46
2023-03-30T11:19:19.738Z,44.58
2023-03-30T11:22:21.262Z,43.43
2023-03-30T11:24:52.740Z,40.35
2023-03-30T11:27:53.107Z,34.27
2023-03-30T11:30:30.112Z,31.72
2023-03-30T11:33:08.597Z,27.41
2023-03-30T11:36:00.654Z,25.13
2023-03-30T11:38:42.047Z,23.17
2023-03-30T11:41:41.129Z,22.19
2023-03-30T11:44:12.836Z,22.74
2023-03-30T11:47:16.466Z,29.45
2023-03-30T11:50:23.231Z,35.62
2023-03-30T11:53:00.487Z,38.25
2023-03-30T11:56:01.987Z,36.45
2023-03-30T11:58:47.720Z,37.13
2023-03-30T12:01:36.793Z,32.82
2023-03-30T12:04:17.011Z,29.82
2023-03-30T12:07:00.968Z,28.12
2023-03-30T12:09:40.488Z,26.08
2023-03-30T12:12:22.469Z,23.75
2023-03-30T12:15:36.948Z,22.85
2023-03-30T12:18:32.935Z,22.02
2023-03-30T12:21:39.780Z,21.01
2023-03-30T12:25:05.432Z,20.07
2023-03-30T12:27:37.398Z,19.40
2023-03-30T12:30:29.914Z,18.98
2023-03-30T12:33:20.363Z,18.70
2023-03-30T12:35:55.633Z,18.57
2023-03-30T12:38:38.596Z,18.21
2023-03-30T12:41:15.389Z,18.11
2023-03-30T12:44:29.522Z,17.85
2023-03-30T12:47:24.984Z,17.68
2023-03-30T12:50:27.825Z,17.34
2023-03-30T12:53:32.748Z,17.15
2023-03-30T12:56:43.992Z,17.15
2023-03-30T12:59:32.847Z,16.71
2023-03-30T13:02:30.808Z,16.70
2023-03-30T13:04:58.366Z,16.47
2023-03-30T13:07:35.211Z,16.77
2023-03-30T13:10:29.490Z,16.55
2023-03-30T13:13:00.182Z,16.37
2023-03-30T13:15:30.090Z,16.40
2023-03-30T13:18:23.209Z,16.44
2023-03-30T13:20:56.561Z,16.56
2023-03-30T13:23:31.510Z,16.43
2023-03-30T13:26:34.476Z,16.34
2023-03-30T13:29:15.289Z,16.21
2023-03-30T13:31:54.242Z,15.95
2023-03-30T13:35:19.436Z,16.00
2023-03-30T13:38:35.126Z,15.89
2023-03-30T13:41:32.648Z,15.87
2023-03-30T13:44:40.501Z,15.72
2023-03-30T13:47:26.015Z,15.74
2023-03-30T13:50:15.617Z,15.67
2023-03-30T13:52:48.938Z,15.77
2023-03-30T13:55:30.206Z,15.59
2023-03-30T13:58:11.444Z,15.46
2023-03-30T14:01:00.177Z,15.12
2023-03-30T14:03:49.315Z,15.09
2023-03-30T14:06:22.803Z,14.89
2023-03-30T14:08:59.233Z,14.91
2023-03-30T14:11:52.656Z,14.95
2023-03-30T14:14:35.983Z,14.81
2023-03-30T14:17:23.798Z,14.82
2023-03-30T14:20:13.265Z,14.71
2023-03-30T14:22:46.228Z,14.79
2023-03-30T14:25:27.463Z,14.66
2023-03-30T14:27:57.877Z,14.61
2023-03-30T14:30:29.917Z,14.38
2023-03-30T14:33:11.855Z,14.26
2023-03-30T14:35:56.743Z,14.16
2023-03-30T14:38:30.157Z,13.87
2023-03-30T14:40:58.626Z,13.77
2023-03-30T14:43:31.792Z,13.79
2023-03-30T14:46:04.936Z,13.58
2023-03-30T14:48:37.725Z,13.61
2023-03-30T14:51:21.171Z,13.56
2023-03-30T14:53:49.589Z,13.59
2023-03-30T14:56:19.111Z,13.46
2023-03-30T14:58:49.152Z,13.51
2023-03-30T15:01:26.095Z,13.61
2023-03-30T15:03:54.111Z,13.69
2023-03-30T15:06:26.752Z,13.50
2023-03-30T15:09:01.292Z,13.40
2023-03-30T15:11:33.570Z,13.12
2023-03-30T15:14:09.941Z,12.92
2023-03-30T15:16:38.837Z,12.93
2023-03-30T15:19:37.896Z,12.94
2023-03-30T15:22:29.162Z,12.93
2023-03-30T15:25:03.535Z,12.76
2023-03-30T15:27:33.050Z,12.68
2023-03-30T15:30:03.081Z,12.72
2023-03-30T15:32:44.113Z,12.58
2023-03-30T15:35:49.227Z,12.52
2023-03-30T15:38:19.038Z,12.44
2023-03-30T15:40:50.328Z,12.49
2023-03-30T15:43:22.373Z,12.19
2023-03-30T15:45:59.878Z,12.18
2023-03-30T15:48:36.504Z,12.18
2023-03-30T15:51:15.732Z,12.15
2023-03-30T15:53:55.867Z,11.94
2023-03-30T15:56:37.475Z,11.78
2023-03-30T15:59:09.891Z,11.76
2023-03-30T16:01:47.995Z,11.90
2023-03-30T16:04:19.200Z,11.81
2023-03-30T16:06:47.583Z,11.73
2023-03-30T16:09:16.844Z,11.59
2023-03-30T16:11:46.252Z,11.61
2023-03-30T16:14:20.508Z,11.72
2023-03-30T16:16:48.960Z,11.71
2023-03-30T16:19:19.791Z,11.58
2023-03-30T16:21:47.097Z,11.50
2023-03-30T16:24:14.657Z,11.47
2023-03-30T16:26:41.954Z,11.61
2023-03-30T16:29:21.948Z,11.45
2023-03-30T16:31:51.488Z,11.41
2023-03-30T16:34:22.165Z,11.47
2023-03-30T16:36:50.685Z,11.37
2023-03-30T16:39:18.445Z,11.39
2023-03-30T16:41:48.428Z,11.33
2023-03-30T16:44:17.951Z,11.28
2023-03-30T16:46:47.126Z,11.30
2023-03-30T16:49:24.776Z,11.40
2023-03-30T16:51:56.990Z,11.39
2023-03-30T16:54:31.048Z,11.32
2023-03-30T16:57:01.666Z,11.30
2023-03-30T16:59:31.993Z,11.47
2023-03-30T17:02:00.536Z,11.28
2023-03-30T17:04:28.314Z,11.32
2023-03-30T17:06:56.299Z,11.29
2023-03-30T17:09:23.910Z,11.29
2023-03-30T17:11:51.628Z,11.25
2023-03-30T17:14:20.886Z,11.13
2023-03-30T17:16:48.370Z,11.24
2023-03-30T17:19:16.045Z,11.32
2023-03-30T17:21:43.983Z,11.44
2023-03-30T17:24:12.795Z,11.20
2023-03-30T17:26:41.141Z,11.22
2023-03-30T17:29:10.872Z,11.16
2023-03-30T17:31:39.051Z,11.24
2023-03-30T17:34:07.572Z,11.32
2023-03-30T17:36:35.044Z,11.35
2023-03-30T17:39:05.558Z,11.13
2023-03-30T17:41:34.319Z,11.02
2023-03-30T17:44:01.964Z,11.09
2023-03-30T17:46:29.492Z,11.09
2023-03-30T17:48:58.905Z,10.93
2023-03-30T17:51:26.421Z,10.96
2023-03-30T17:53:54.187Z,10.99
2023-03-30T17:56:21.524Z,11.06
2023-03-30T17:58:49.758Z,11.08
2023-03-30T18:01:17.225Z,11.20
2023-03-30T18:03:45.253Z,11.04
2023-03-30T18:06:13.214Z,11.04
2023-03-30T18:08:43.067Z,11.13
2023-03-30T18:11:10.594Z,11.07
2023-03-30T18:13:38.344Z,11.17
2023-03-30T18:16:06.230Z,11.09
2023-03-30T18:18:33.909Z,11.08
2023-03-30T18:21:04.614Z,11.12
2023-03-30T18:23:37.564Z,11.05
2023-03-30T18:26:10.241Z,11.04
2023-03-30T18:28:44.017Z,11.03
2023-03-30T18:31:11.880Z,11.00
2023-03-30T18:33:39.696Z,10.99
2023-03-30T18:36:12.980Z,10.99
2023-03-30T18:38:42.539Z,10.90
2023-03-30T18:41:12.930Z,11.03
2023-03-30T18:43:40.787Z,10.90
2023-03-30T18:46:12.734Z,10.89
2023-03-30T18:48:40.737Z,10.92
2023-03-30T18:51:12.101Z,10.87
2023-03-30T18:53:40.057Z,10.90
2023-03-30T18:56:11.962Z,10.99
2023-03-30T18:58:42.152Z,10.89
2023-03-30T19:01:12.965Z,10.82
2023-03-30T19:03:41.791Z,10.87
2023-03-30T19:06:19.787Z,10.83
2023-03-30T19:08:47.410Z,10.88
2023-03-30T19:11:23.387Z,11.04
2023-03-30T19:13:51.594Z,10.96
2023-03-30T19:16:19.012Z,10.85
2023-03-30T19:18:46.705Z,10.85
2023-03-30T19:21:17.602Z,10.85
2023-03-30T19:23:45.445Z,10.84
2023-03-30T19:26:13.103Z,10.91
2023-03-30T19:28:40.884Z,10.91
2023-03-30T19:31:13.507Z,10.96
2023-03-30T19:33:41.700Z,10.88
2023-03-30T19:36:10.513Z,10.95
2023-03-30T19:38:38.634Z,10.99
2023-03-30T19:41:07.520Z,11.29
2023-03-30T19:43:35.619Z,11.03
2023-03-30T19:46:03.639Z,10.84
2023-03-30T19:48:31.334Z,10.91
2023-03-30T19:50:58.631Z,11.09
2023-03-30T19:53:26.155Z,11.02
2023-03-30T19:55:54.424Z,10.96
2023-03-30T19:58:21.992Z,10.98
2023-03-30T20:00:49.639Z,11.00
2023-03-30T20:03:17.436Z,11.17
2023-03-30T20:05:50.614Z,11.06
2023-03-30T20:08:24.201Z,10.92
2023-03-30T20:10:53.056Z,10.91
2023-03-30T20:13:24.525Z,10.83
2023-03-30T20:15:56.233Z,10.82
2023-03-30T20:18:24.079Z,10.90
2023-03-30T20:20:51.527Z,10.78
2023-03-30T20:23:19.461Z,10.86
2023-03-30T20:25:49.558Z,10.71
2023-03-30T20:28:17.942Z,10.76
2023-03-30T20:30:45.450Z,10.83
2023-03-30T20:33:13.474Z,10.82
2023-03-30T20:35:40.867Z,10.81
2023-03-30T20:38:08.667Z,10.74
2023-03-30T20:40:36.187Z,10.71
2023-03-30T20:43:04.111Z,10.75
2023-03-30T20:45:31.909Z,10.63
2023-03-30T20:48:06.208Z,10.71
2023-03-30T20:50:34.060Z,10.72
2023-03-30T20:53:02.294Z,10.61
2023-03-30T20:55:29.683Z,10.69
2023-03-30T20:57:57.295Z,10.63
2023-03-30T21:00:24.656Z,10.74
2023-03-30T21:02:52.344Z,10.83
2023-03-30T21:05:19.681Z,10.77
2023-03-30T21:07:48.392Z,10.66
2023-03-30T21:10:16.578Z,10.66
2023-03-30T21:12:44.343Z,10.55
2023-03-30T21:15:11.947Z,10.62
2023-03-30T21:17:39.767Z,10.58
2023-03-30T21:20:09.352Z,10.56
2023-03-30T21:22:37.478Z,10.55
2023-03-30T21:25:05.317Z,10.63
2023-03-30T21:27:33.005Z,10.47
2023-03-30T21:30:00.598Z,10.54
2023-03-30T21:32:30.120Z,10.67
2023-03-30T21:34:58.674Z,10.52
2023-03-30T21:37:26.427Z,10.61
2023-03-30T21:39:53.684Z,10.48
2023-03-30T21:42:21.255Z,10.59
2023-03-30T21:44:48.513Z,10.63
2023-03-30T21:47:16.775Z,10.66
2023-03-30T21:49:44.081Z,10.69
2023-03-30T21:52:11.941Z,10.66
2023-03-30T21:54:39.518Z,10.63
2023-03-30T21:57:07.207Z,10.71
2023-03-30T21:59:34.666Z,10.78
2023-03-30T22:02:02.265Z,10.78
2023-03-30T22:04:29.539Z,10.70
2023-03-30T22:06:57.289Z,10.70
2023-03-30T22:09:24.590Z,10.78
2023-03-30T22:11:54.141Z,10.66
2023-03-30T22:14:22.212Z,10.60
2023-03-30T22:16:49.906Z,10.58
2023-03-30T22:19:19.051Z,10.66
2023-03-30T22:21:46.607Z,10.59
2023-03-30T22:24:13.897Z,10.63
2023-03-30T22:26:41.571Z,10.73
2023-03-30T22:29:08.880Z,10.74
2023-03-30T22:31:36.479Z,10.73
2023-03-30T22:34:04.164Z,10.72
2023-03-30T22:36:32.318Z,10.63
2023-03-30T22:39:02.259Z,10.74
2023-03-30T22:41:30.431Z,10.69
2023-03-30T22:43:58.854Z,10.61
2023-03-30T22:46:28.092Z,10.59
2023-03-30T22:48:56.158Z,10.63
2023-03-30T22:51:28.195Z,10.72
2023-03-30T22:54:00.613Z,10.62
2023-03-30T22:56:30.070Z,10.58
2023-03-30T22:58:59.983Z,10.67
2023-03-30T23:01:32.557Z,10.70
2023-03-30T23:04:00.526Z,10.64
2023-03-30T23:06:28.202Z,10.65
2023-03-30T23:08:55.496Z,10.58
2023-03-30T23:11:23.739Z,10.64
2023-03-30T23:13:52.543Z,10.47
2023-03-30T23:16:20.209Z,10.44
2023-03-30T23:18:48.462Z,10.47
2023-03-30T23:21:16.938Z,10.36
2023-03-30T23:23:44.296Z,10.31
2023-03-30T23:26:12.008Z,10.29
2023-03-30T23:28:42.000Z,10.32
2023-03-30T23:31:14.056Z,10.28
2023-03-30T23:33:42.325Z,10.37
2023-03-30T23:36:13.969Z,10.28
2023-03-30T23:38:41.900Z,10.33
2023-03-30T23:41:13.196Z,10.42
2023-03-30T23:43:40.999Z,10.40
2023-03-30T23:46:10.020Z,10.52
2023-03-30T23:48:37.880Z,10.57
2023-03-30T23:51:06.808Z,10.54
2023-03-30T23:53:35.028Z,10.53
2023-03-30T23:56:06.617Z,10.54
2023-03-30T23:58:34.387Z,10.51
